createdAt,value
2023-01-26T00:01:47.563Z,13.20
2023-01-26T00:06:51.687Z,14.40
2023-01-26T00:11:54.458Z,13.80
2023-01-26T00:16:57.270Z,13.00
2023-01-26T00:22:01.336Z,12.60
2023-01-26T00:27:04.130Z,13.60
2023-01-26T00:32:07.247Z,13.60
2023-01-26T00:37:11.411Z,13.60
2023-01-26T00:42:15.841Z,10.20
2023-01-26T00:47:19.022Z,13.40
2023-01-26T00:52:23.121Z,12.00
2023-01-26T00:57:26.503Z,10.60
2023-01-26T01:02:29.406Z,10.40
2023-01-26T01:07:33.549Z,12.20
2023-01-26T01:12:36.437Z,10.20
2023-01-26T01:17:39.196Z,11.40
2023-01-26T01:22:43.379Z,12.00
2023-01-26T01:27:46.887Z,10.20
2023-01-26T01:32:51.608Z,12.20
2023-01-26T01:37:55.792Z,10.80
2023-01-26T01:42:58.651Z,11.00
2023-01-26T01:48:02.423Z,11.00
2023-01-26T01:53:06.664Z,11.00
2023-01-26T01:58:10.213Z,10.20
2023-01-26T02:03:14.732Z,9.80
2023-01-26T02:08:19.585Z,11.60
2023-01-26T02:13:22.577Z,10.00
2023-01-26T02:18:25.463Z,10.00
2023-01-26T02:23:50.278Z,11.60
2023-01-26T02:28:54.495Z,11.20
2023-01-26T02:33:57.259Z,9.20
2023-01-26T02:39:13.711Z,10.80
2023-01-26T02:44:18.018Z,9.40
2023-01-26T02:49:38.515Z,9.20
2023-01-26T02:54:58.684Z,9.20
2023-01-26T03:00:02.868Z,10.00
2023-01-26T03:05:07.498Z,12.40
2023-01-26T03:10:13.446Z,11.80
2023-01-26T03:15:42.614Z,12.40
2023-01-26T03:21:03.505Z,10.60
2023-01-26T03:26:23.978Z,9.00
2023-01-26T03:31:28.221Z,9.20
2023-01-26T03:36:31.187Z,12.40
2023-01-26T03:41:52.782Z,12.00
2023-01-26T03:47:14.773Z,11.40
2023-01-26T03:52:35.322Z,8.40
2023-01-26T03:57:38.692Z,10.80
2023-01-26T04:03:00.483Z,8.60
2023-01-26T04:08:22.836Z,10.80
2023-01-26T04:13:47.010Z,9.40
2023-01-26T04:19:15.592Z,11.60
2023-01-26T04:24:21.767Z,7.80
2023-01-26T04:29:28.822Z,10.60
2023-01-26T04:34:33.055Z,9.80
2023-01-26T04:39:37.538Z,11.00
2023-01-26T04:44:41.526Z,8.00
2023-01-26T04:49:46.662Z,8.00
2023-01-26T04:54:51.379Z,9.00
2023-01-26T04:59:54.497Z,9.40
2023-01-26T05:04:58.773Z,9.00
2023-01-26T05:10:01.749Z,11.00
2023-01-26T05:15:29.239Z,9.00
2023-01-26T05:20:44.630Z,8.00
2023-01-26T05:25:52.907Z,13.80
2023-01-26T05:30:56.071Z,11.00
2023-01-26T05:36:04.401Z,10.20
2023-01-26T05:41:07.956Z,10.60
2023-01-26T05:46:24.212Z,9.00
2023-01-26T05:51:28.586Z,10.20
2023-01-26T05:56:31.761Z,11.60
2023-01-26T06:01:37.894Z,8.00
2023-01-26T06:06:44.569Z,9.60
2023-01-26T06:12:07.768Z,11.00
2023-01-26T06:17:22.649Z,8.00
2023-01-26T06:22:32.985Z,8.60
2023-01-26T06:27:35.766Z,8.40
2023-01-26T06:32:44.727Z,9.00
2023-01-26T06:37:51.369Z,7.60
2023-01-26T06:42:54.386Z,7.60
2023-01-26T06:47:57.240Z,8.00
2023-01-26T06:53:02.075Z,8.00
2023-01-26T06:58:27.710Z,7.80
2023-01-26T07:03:49.978Z,7.80
2023-01-26T07:08:54.188Z,9.60
2023-01-26T07:13:57.066Z,7.00
2023-01-26T07:18:59.845Z,7.80
2023-01-26T07:24:04.416Z,8.20
2023-01-26T07:29:07.388Z,10.00
2023-01-26T07:34:10.464Z,6.20
2023-01-26T07:39:14.621Z,8.00
2023-01-26T07:44:17.543Z,7.80
2023-01-26T07:49:20.366Z,10.40
2023-01-26T07:54:24.632Z,8.00
2023-01-26T07:59:27.460Z,7.20
2023-01-26T08:04:30.359Z,8.40
2023-01-26T08:09:34.522Z,7.20
2023-01-26T08:14:46.391Z,5.40
2023-01-26T08:19:49.652Z,8.40
2023-01-26T08:24:53.885Z,18.40
2023-01-26T08:29:56.652Z,24.20
2023-01-26T08:34:59.931Z,22.80
2023-01-26T08:40:04.341Z,24.60
2023-01-26T08:45:07.945Z,18.00
2023-01-26T08:50:11.980Z,15.20
2023-01-26T08:55:16.568Z,14.80
2023-01-26T09:00:20.067Z,13.00
2023-01-26T09:05:22.821Z,12.60
2023-01-26T09:10:27.107Z,10.60
2023-01-26T09:15:29.909Z,10.20
2023-01-26T09:20:32.669Z,10.80
2023-01-26T09:25:38.362Z,8.20
2023-01-26T09:30:41.336Z,10.40
2023-01-26T09:35:44.266Z,10.60
2023-01-26T09:40:52.540Z,8.60
2023-01-26T09:45:59.397Z,8.20
2023-01-26T09:51:03.512Z,7.60
2023-01-26T09:56:09.504Z,9.20
2023-01-26T10:01:16.123Z,7.20
2023-01-26T10:06:22.310Z,8.00
2023-01-26T10:11:44.604Z,9.00
2023-01-26T10:16:48.714Z,7.00
2023-01-26T10:21:51.861Z,7.20
2023-01-26T10:26:58.403Z,6.80
2023-01-26T10:32:01.203Z,9.20
2023-01-26T10:37:22.432Z,8.60
2023-01-26T10:42:27.599Z,5.60
2023-01-26T10:47:30.392Z,8.20
2023-01-26T10:52:33.401Z,9.80
2023-01-26T10:57:38.906Z,7.80
2023-01-26T11:02:41.718Z,8.00
2023-01-26T11:07:44.862Z,7.00
2023-01-26T11:12:49.189Z,5.00
2023-01-26T11:17:55.902Z,7.00
2023-01-26T11:23:00.085Z,7.80
2023-01-26T11:28:25.588Z,7.20
2023-01-26T11:33:31.090Z,5.40
2023-01-26T11:38:37.497Z,7.40
2023-01-26T11:43:52.696Z,4.00
2023-01-26T11:49:03.129Z,6.40
2023-01-26T11:54:29.535Z,6.80
2023-01-26T11:59:36.834Z,4.60
2023-01-26T12:04:45.465Z,5.00
2023-01-26T12:09:48.758Z,4.60
2023-01-26T12:14:54.780Z,5.00
2023-01-26T12:20:04.488Z,6.00
2023-01-26T12:25:27.444Z,5.00
2023-01-26T12:30:35.950Z,5.40
2023-01-26T12:35:49.535Z,6.00
2023-01-26T12:40:59.120Z,4.00
2023-01-26T12:46:03.295Z,4.40
2023-01-26T12:51:07.343Z,6.60
2023-01-26T12:56:13.246Z,7.60
2023-01-26T13:01:17.961Z,5.20
2023-01-26T13:06:22.103Z,4.80
2023-01-26T13:11:45.359Z,5.20
2023-01-26T13:16:49.575Z,4.00
2023-01-26T13:21:52.322Z,5.20
2023-01-26T13:26:55.297Z,4.00
2023-01-26T13:32:00.505Z,4.60
2023-01-26T13:37:06.144Z,5.00
2023-01-26T13:42:16.930Z,4.80
2023-01-26T13:47:23.582Z,5.00
2023-01-26T13:52:26.806Z,6.00
2023-01-26T13:57:30.607Z,8.00
2023-01-26T14:02:36.096Z,9.40
2023-01-26T14:07:39.988Z,8.80
2023-01-26T14:12:43.610Z,9.80
2023-01-26T14:17:50.347Z,7.00
2023-01-26T14:23:13.728Z,9.00
2023-01-26T14:28:17.379Z,8.40
2023-01-26T14:33:21.497Z,8.40
2023-01-26T14:38:24.294Z,8.20
2023-01-26T14:43:27.810Z,8.40
2023-01-26T14:48:33.546Z,9.00
2023-01-26T14:53:36.287Z,5.80
2023-01-26T14:58:41.350Z,10.00
2023-01-26T15:03:45.455Z,6.00
2023-01-26T15:08:56.471Z,8.40
2023-01-26T15:13:59.367Z,9.40
2023-01-26T15:19:04.717Z,7.80
2023-01-26T15:24:07.645Z,5.60
2023-01-26T15:29:19.674Z,5.40
2023-01-26T15:34:32.425Z,7.00
2023-01-26T15:39:35.373Z,7.00
2023-01-26T15:44:38.212Z,5.80
2023-01-26T15:49:42.914Z,8.20
2023-01-26T15:54:45.724Z,8.60
2023-01-26T15:59:48.555Z,6.40
2023-01-26T16:04:52.695Z,7.80
2023-01-26T16:09:55.462Z,5.40
2023-01-26T16:14:59.350Z,6.40
2023-01-26T16:20:03.533Z,9.00
2023-01-26T16:25:13.647Z,6.80
2023-01-26T16:30:17.323Z,7.00
2023-01-26T16:35:22.818Z,5.40
2023-01-26T16:40:25.560Z,5.00
2023-01-26T16:45:28.449Z,5.00
2023-01-26T16:50:32.678Z,7.60
2023-01-26T16:55:35.504Z,6.80
2023-01-26T17:00:38.293Z,7.80
2023-01-26T17:05:42.451Z,6.00
2023-01-26T17:10:59.859Z,8.00
2023-01-26T17:16:05.023Z,20.00
2023-01-26T17:21:09.165Z,33.50
2023-01-26T17:26:12.870Z,28.25
2023-01-26T17:31:17.699Z,25.40
2023-01-26T17:36:22.199Z,22.00
2023-01-26T17:41:25.121Z,21.00
2023-01-26T17:46:27.915Z,20.60
2023-01-26T17:51:32.074Z,19.60
2023-01-26T17:56:34.974Z,16.60
2023-01-26T18:01:37.733Z,19.60
2023-01-26T18:06:41.867Z,14.20
2023-01-26T18:11:44.662Z,17.00
2023-01-26T18:16:47.592Z,16.00
2023-01-26T18:21:51.733Z,17.20
2023-01-26T18:26:54.522Z,19.60
2023-01-26T18:31:57.532Z,12.20
2023-01-26T18:37:01.715Z,14.80
2023-01-26T18:42:04.671Z,17.00
2023-01-26T18:47:07.624Z,15.40
2023-01-26T18:52:11.842Z,14.60
2023-01-26T18:57:14.658Z,14.20
2023-01-26T19:02:17.514Z,16.00
2023-01-26T19:07:21.877Z,14.20
2023-01-26T19:12:24.917Z,14.00
2023-01-26T19:17:27.927Z,14.40
2023-01-26T19:22:32.030Z,11.80
2023-01-26T19:27:34.904Z,13.60
2023-01-26T19:32:37.649Z,12.40
2023-01-26T19:37:41.856Z,14.60
2023-01-26T19:42:44.866Z,15.80
2023-01-26T19:47:47.956Z,14.20
2023-01-26T19:52:52.061Z,13.00
2023-01-26T19:57:54.868Z,12.00
2023-01-26T20:02:57.696Z,12.40
2023-01-26T20:08:01.867Z,13.20
2023-01-26T20:13:04.872Z,14.20
2023-01-26T20:18:07.836Z,13.60
2023-01-26T20:23:11.965Z,13.60
2023-01-26T20:28:14.801Z,13.40
2023-01-26T20:33:17.734Z,11.80
2023-01-26T20:38:21.882Z,16.40
2023-01-26T20:43:25.001Z,15.60
2023-01-26T20:48:27.781Z,13.00
2023-01-26T20:53:32.088Z,14.00
2023-01-26T20:58:34.836Z,14.40
2023-01-26T21:03:38.055Z,14.80
2023-01-26T21:08:42.225Z,14.60
2023-01-26T21:13:45.550Z,12.80
2023-01-26T21:18:49.285Z,15.00
2023-01-26T21:23:53.603Z,14.00
2023-01-26T21:28:57.145Z,13.00
2023-01-26T21:34:00.061Z,11.00
2023-01-26T21:39:04.851Z,14.40
2023-01-26T21:44:08.513Z,12.20
2023-01-26T21:49:11.610Z,11.40
2023-01-26T21:54:15.868Z,13.20
2023-01-26T21:59:19.066Z,11.00
2023-01-26T22:04:23.622Z,11.00
2023-01-26T22:09:28.292Z,11.40
2023-01-26T22:14:31.137Z,10.60
2023-01-26T22:19:33.888Z,11.40
2023-01-26T22:24:38.022Z,9.60
2023-01-26T22:29:40.796Z,9.80
2023-01-26T22:34:43.675Z,11.40
2023-01-26T22:39:49.006Z,9.80
2023-01-26T22:44:51.819Z,10.40
2023-01-26T22:49:54.550Z,9.80
2023-01-26T22:54:58.694Z,10.20
2023-01-26T23:00:02.509Z,9.60
2023-01-26T23:05:05.987Z,9.20
2023-01-26T23:10:11.349Z,9.80
2023-01-26T23:15:14.462Z,9.00
2023-01-26T23:20:17.704Z,10.00
2023-01-26T23:25:50.681Z,9.40
2023-01-26T23:30:54.078Z,7.20
2023-01-26T23:35:56.906Z,9.60
2023-01-26T23:41:01.338Z,11.20
2023-01-26T23:46:04.909Z,10.20
2023-01-26T23:51:08.587Z,10.40
2023-01-26T23:56:14.849Z,9.00
